Time;durP1;ratioP1;P1;durP2;ratioP2;P2;SDS_P1;SDS_P2;PMS_P1;PMS_P2;Temp;Humidity;BMP_temperature;BMP_pressure;BME280_temperature;BME280_humidity;BME280_pressure;Samples;Min_cycle;Max_cycle;Signal;HPM_P1;HPM_P2
2022/12/07 00:01:13;;;;;;;62.72;23.95;;;;;;;5.82;76.21;93905.78;5084694;28;20067;-81
2022/12/07 00:03:40;;;;;;;58.10;24.75;;;;;;;5.85;75.96;93899.94;5084807;28;20020;-81
2022/12/07 00:06:07;;;;;;;58.88;25.00;;;;;;;5.88;75.95;93909.16;5084883;28;20020;-81
2022/12/07 00:08:34;;;;;;;54.80;24.90;;;;;;;5.88;75.94;93898.59;5084560;28;20020;-81
2022/12/07 00:11:03;;;;;;;58.85;25.08;;;;;;;5.92;75.80;93896.97;5084417;28;20063;-81
2022/12/07 00:13:29;;;;;;;49.00;25.10;;;;;;;5.93;75.55;93896.69;5084898;28;20236;-81
2022/12/07 00:15:55;;;;;;;52.13;25.63;;;;;;;5.94;75.67;93892.16;5083470;28;20214;-81
2022/12/07 00:18:20;;;;;;;50.67;23.40;;;;;;;5.93;75.61;93886.09;5084308;28;20042;-81
2022/12/07 00:20:46;;;;;;;53.90;26.10;;;;;;;5.94;75.58;93890.34;5084457;28;20035;-80
2022/12/07 00:23:11;;;;;;;60.03;25.67;;;;;;;5.93;75.70;93890.59;5084441;28;20024;-81
2022/12/07 00:25:36;;;;;;;65.70;27.02;;;;;;;5.97;75.71;93886.34;5084263;28;20028;-80
2022/12/07 00:28:02;;;;;;;65.18;26.98;;;;;;;5.98;75.51;93893.22;5084204;28;20029;-81
2022/12/07 00:30:27;;;;;;;64.25;26.58;;;;;;;5.99;75.61;93889.50;5084472;28;20028;-81
2022/12/07 00:32:53;;;;;;;63.65;28.92;;;;;;;5.97;75.56;93897.72;5084299;28;20319;-81
2022/12/07 00:35:18;;;;;;;64.38;26.83;;;;;;;5.97;75.50;93899.59;5084050;28;20035;-81
2022/12/07 00:37:44;;;;;;;58.33;26.27;;;;;;;5.97;75.58;93900.38;5084308;28;20070;-81
2022/12/07 00:40:10;;;;;;;69.28;30.20;;;;;;;6.00;75.59;93891.06;5082867;28;20214;-80
2022/12/07 00:42:35;;;;;;;72.85;32.63;;;;;;;5.98;75.57;93887.91;5084097;28;20362;-81
2022/12/07 00:45:00;;;;;;;73.20;31.40;;;;;;;6.00;75.44;93883.13;5084533;28;20016;-81
2022/12/07 00:47:26;;;;;;;68.90;31.42;;;;;;;6.02;75.58;93883.63;5082812;28;20319;-82
2022/12/07 00:49:51;;;;;;;68.90;33.30;;;;;;;6.01;75.54;93885.50;5083906;28;20253;-82
2022/12/07 00:52:17;;;;;;;66.63;30.75;;;;;;;5.95;75.62;93885.84;5083920;28;20066;-82
2022/12/07 00:54:42;;;;;;;70.90;30.92;;;;;;;5.96;75.62;93887.41;5083657;28;20283;-84
2022/12/07 00:57:07;;;;;;;72.32;28.38;;;;;;;5.90;75.93;93891.16;5083707;28;20020;-82
2022/12/07 00:59:33;;;;;;;55.38;26.35;;;;;;;5.82;75.83;93896.03;5083605;28;20098;-85
2022/12/07 01:01:58;;;;;;;61.83;25.52;;;;;;;5.75;76.30;93890.25;5083719;28;20021;-85
2022/12/07 01:04:24;;;;;;;63.53;26.35;;;;;;;5.69;76.64;93887.97;5083499;28;20319;-85
2022/12/07 01:06:49;;;;;;;52.25;25.35;;;;;;;5.59;76.99;93888.84;5083706;28;20031;-85
2022/12/07 01:09:15;;;;;;;56.67;25.17;;;;;;;5.56;77.63;93870.91;5083439;28;20024;-85
2022/12/07 01:11:40;;;;;;;55.83;25.73;;;;;;;5.53;77.68;93877.53;5083640;28;20021;-84
2022/12/07 01:14:06;;;;;;;66.95;27.17;;;;;;;5.57;77.78;93883.06;5082239;28;20027;-84
2022/12/07 01:16:32;;;;;;;56.42;24.00;;;;;;;5.61;78.07;93874.28;5083745;28;20302;-84
2022/12/07 01:19:00;;;;;;;51.63;24.92;;;;;;;5.65;77.78;93873.72;5083631;28;20028;-84
2022/12/07 01:21:34;;;;;;;57.42;24.52;;;;;;;5.65;77.80;93868.44;5082507;28;20024;-84
2022/12/07 01:24:00;;;;;;;58.90;24.25;;;;;;;5.66;77.67;93868.16;5083430;28;20020;-84
2022/12/07 01:26:26;;;;;;;49.80;23.15;;;;;;;5.66;77.77;93868.16;5083310;28;20020;-84
2022/12/07 01:28:54;;;;;;;54.63;25.42;;;;;;;5.69;77.61;93866.81;5083239;28;20017;-84
2022/12/07 01:31:22;;;;;;;47.83;22.40;;;;;;;5.70;77.69;93866.53;5081697;28;20023;-82
2022/12/07 01:33:49;;;;;;;50.95;23.92;;;;;;;5.69;77.43;93864.94;5083149;28;20030;-82
2022/12/07 01:36:32;;;;;;;54.42;21.55;;;;;;;5.71;77.69;93856.75;5083060;28;20107;-82
2022/12/07 01:38:59;;;;;;;;;;;;;;;5.71;77.55;93862.81;5083643;28;20024;-82
2022/12/07 01:41:27;;;;;;;52.50;20.45;;;;;;;5.66;77.35;93859.44;5082792;28;19909;-82
2022/12/07 01:44:31;;;;;;;46.33;22.48;;;;;;;5.71;77.48;93872.59;5082843;28;20024;-82
2022/12/07 01:47:03;;;;;;;57.00;21.90;;;;;;;5.68;77.19;93868.69;5062116;28;20216;-81
2022/12/07 01:49:46;;;;;;;46.55;22.00;;;;;;;5.69;77.03;93870.22;5082890;28;20028;-80
2022/12/07 01:52:23;;;;;;;49.75;20.27;;;;;;;5.70;76.70;93869.19;5082908;28;20070;-81
2022/12/07 01:54:53;;;;;;;50.58;21.55;;;;;;;5.71;76.77;93868.09;5081634;28;20024;-82
2022/12/07 01:57:19;;;;;;;55.03;21.50;;;;;;;5.71;76.89;93857.50;5082810;28;20222;-83
2022/12/07 01:59:47;;;;;;;53.88;22.92;;;;;;;5.75;76.86;93853.25;5082569;28;20085;-82
2022/12/07 02:02:19;;;;;;;52.90;22.08;;;;;;;5.74;76.71;93848.22;5082825;28;20358;-82
2022/12/07 02:04:46;;;;;;;49.58;20.83;;;;;;;5.74;76.61;93848.22;5082889;28;20117;-82
2022/12/07 02:07:12;;;;;;;51.10;22.52;;;;;;;5.75;76.67;93842.66;5082651;28;20016;-81
2022/12/07 02:09:37;;;;;;;53.95;23.45;;;;;;;5.78;76.60;93839.47;5081425;28;20016;-81
2022/12/07 02:12:04;;;;;;;53.40;23.25;;;;;;;5.78;76.77;93842.09;5081318;28;20324;-82
2022/12/07 02:14:29;;;;;;;49.30;22.40;;;;;;;5.77;76.65;93850.31;5082803;28;20016;-82
2022/12/07 02:17:00;;;;;;;61.20;23.42;;;;;;;5.78;76.36;93852.69;5082678;28;20021;-82
2022/12/07 02:19:49;;;;;;;55.90;22.40;;;;;;;5.69;76.61;93858.88;5082429;28;20024;-82
2022/12/07 02:22:52;;;;;;;49.60;21.30;;;;;;;5.66;76.61;93854.94;5082494;28;20257;-81
2022/12/07 02:25:30;;;;;;;56.30;21.15;;;;;;;5.56;77.03;93844.47;5071316;28;20265;-82
2022/12/07 02:28:06;;;;;;;44.33;21.13;;;;;;;5.51;77.15;93844.53;5082509;28;20056;-82
2022/12/07 02:30:38;;;;;;;47.05;21.30;;;;;;;5.45;77.31;93845.66;5082412;28;20025;-81
2022/12/07 02:33:46;;;;;;;45.58;22.48;;;;;;;5.50;77.56;93838.47;5084356;28;20126;-81
2022/12/07 02:36:25;;;;;;;45.58;22.27;;;;;;;5.50;77.55;93835.81;5086605;28;20048;-82
2022/12/07 02:38:56;;;;;;;53.92;21.83;;;;;;;5.50;77.76;93837.69;5086507;28;20025;-82
2022/12/07 02:41:30;;;;;;;53.50;22.23;;;;;;;5.51;77.54;93844.53;5086433;28;20039;-81
2022/12/07 02:43:59;;;;;;;49.95;22.95;;;;;;;5.49;77.47;93839.50;5086427;28;20218;-80
2022/12/07 02:46:35;;;;;;;44.90;24.20;;;;;;;5.46;77.05;93839.31;5086303;28;20020;-81
2022/12/07 02:49:02;;;;;;;53.72;23.13;;;;;;;5.45;77.33;93835.84;5086369;28;20020;-80
2022/12/07 02:51:30;;;;;;;49.83;22.92;;;;;;;5.44;77.21;93839.59;5086272;28;20207;-80
2022/12/07 02:53:56;;;;;;;42.80;21.17;;;;;;;5.37;77.25;93839.94;5086001;28;20042;-80
2022/12/07 02:57:04;;;;;;;44.05;20.23;;;;;;;5.38;77.21;93830.91;5085904;28;20036;-80
2022/12/07 03:00:04;;;;;;;44.13;18.75;;;;;;;5.33;77.10;93827.53;5085908;28;20048;-80
2022/12/07 03:02:58;;;;;;;42.05;20.30;;;;;;;5.30;77.37;93831.53;5086045;28;20067;-83
2022/12/07 03:05:57;;;;;;;43.95;20.52;;;;;;;5.27;77.31;93815.44;5085900;28;20195;-83
2022/12/07 03:08:32;;;;;;;50.55;22.27;;;;;;;5.26;77.16;93819.94;5084563;28;20111;-83
2022/12/07 03:11:08;;;;;;;48.20;22.08;;;;;;;5.23;77.03;93812.56;5084815;28;20246;-82
2022/12/07 03:13:45;;;;;;;45.22;21.48;;;;;;;5.22;77.23;93801.22;5085809;28;20028;-83
2022/12/07 03:16:16;;;;;;;42.75;20.50;;;;;;;5.22;77.05;93800.44;5085583;28;20020;-84
2022/12/07 03:18:55;;;;;;;45.10;20.63;;;;;;;5.21;76.84;93807.56;5084398;28;20200;-81
2022/12/07 03:21:27;;;;;;;45.63;21.13;;;;;;;5.19;76.64;93808.91;5085566;28;20028;-82
2022/12/07 03:23:58;;;;;;;40.22;19.83;;;;;;;5.17;76.54;93816.31;5085534;28;20143;-81
2022/12/07 03:26:31;;;;;;;41.10;20.15;;;;;;;5.14;76.73;93807.09;5085381;28;20055;-84
2022/12/07 03:29:01;;;;;;;45.63;21.65;;;;;;;5.14;76.28;93811.63;5085384;28;20028;-84
2022/12/07 03:31:33;;;;;;;45.05;21.70;;;;;;;5.12;76.32;93811.09;5085374;28;20207;-83
2022/12/07 03:34:27;;;;;;;42.45;18.52;;;;;;;5.07;76.68;93825.16;5085637;28;20035;-83
2022/12/07 03:36:59;;;;;;;43.28;19.92;;;;;;;5.08;76.94;93823.28;5074447;28;20036;-80
2022/12/07 03:39:35;;;;;;;44.63;20.52;;;;;;;5.07;77.16;93819.06;5085169;28;20223;-80
2022/12/07 03:42:05;;;;;;;40.25;19.40;;;;;;;5.06;77.53;93807.72;5085289;28;20024;-81
2022/12/07 03:44:32;;;;;;;38.40;18.58;;;;;;;5.07;77.35;93804.03;5084179;28;20032;-82
2022/12/07 03:47:03;;;;;;;37.17;19.60;;;;;;;5.11;77.29;93820.09;5085180;28;20024;-79
2022/12/07 03:49:39;;;;;;;47.38;18.70;;;;;;;5.13;77.32;93818.75;5085252;28;20027;-80
2022/12/07 03:52:23;;;;;;;36.55;18.30;;;;;;;5.15;77.08;93813.16;5084896;28;20036;-79
2022/12/07 03:54:52;;;;;;;38.20;19.17;;;;;;;5.16;77.13;93814.75;5084800;28;20054;-79
2022/12/07 03:57:19;;;;;;;37.20;19.38;;;;;;;5.17;77.08;93811.84;5084911;28;20043;-80
2022/12/07 03:59:45;;;;;;;37.63;17.92;;;;;;;5.17;77.22;93805.75;5084713;28;20279;-79
2022/12/07 04:02:13;;;;;;;39.28;18.70;;;;;;;5.19;77.09;93798.34;5083645;28;20020;-79
2022/12/07 04:04:39;;;;;;;39.05;19.52;;;;;;;5.20;76.97;93806.00;5084803;28;20096;-80
2022/12/07 04:07:04;;;;;;;44.65;19.15;;;;;;;5.21;76.80;93801.47;5084606;28;20246;-79
2022/12/07 04:09:30;;;;;;;37.88;18.15;;;;;;;5.20;76.77;93806.00;5085001;28;20042;-80
2022/12/07 04:11:55;;;;;;;36.45;15.80;;;;;;;5.22;76.51;93800.44;5083574;28;20082;-79
2022/12/07 04:14:21;;;;;;;36.25;18.15;;;;;;;5.20;76.71;93799.91;5084480;28;20026;-80
2022/12/07 04:16:56;;;;;;;34.08;16.27;;;;;;;5.19;76.30;93804.44;5084327;28;20031;-80
2022/12/07 04:19:24;;;;;;;35.45;16.40;;;;;;;5.19;76.37;93806.25;5084534;28;20024;-80
2022/12/07 04:21:49;;;;;;;31.67;15.68;;;;;;;5.16;76.30;93806.84;5084549;28;20223;-81
2022/12/07 04:24:16;;;;;;;35.53;16.25;;;;;;;5.15;76.80;93803.41;5084185;28;20025;-80
2022/12/07 04:26:42;;;;;;;35.60;16.65;;;;;;;5.16;76.65;93798.91;5084266;28;20089;-80
2022/12/07 04:29:09;;;;;;;34.38;18.25;;;;;;;5.16;76.78;93804.97;5084529;28;20027;-80
2022/12/07 04:31:35;;;;;;;42.22;17.65;;;;;;;5.17;76.95;93803.09;5083137;28;20044;-80
2022/12/07 04:34:00;;;;;;;37.28;17.92;;;;;;;5.13;77.10;93813.47;5084217;28;20406;-80
2022/12/07 04:36:26;;;;;;;33.50;16.63;;;;;;;5.12;77.15;93803.19;5084136;28;20020;-80
2022/12/07 04:38:54;;;;;;;36.97;16.10;;;;;;;5.09;77.19;93809.81;5084271;28;20280;-80
2022/12/07 04:41:26;;;;;;;33.38;16.00;;;;;;;5.08;77.09;93808.22;5084115;28;20138;-80
2022/12/07 04:43:55;;;;;;;36.72;16.40;;;;;;;5.09;76.99;93814.28;5083764;28;20330;-81
2022/12/07 04:46:22;;;;;;;42.97;17.80;;;;;;;5.07;77.08;93816.41;5083943;28;20125;-81
2022/12/07 04:48:48;;;;;;;33.53;15.68;;;;;;;5.03;77.04;93819.63;5083915;28;20235;-81
2022/12/07 04:51:24;;;;;;;36.38;17.33;;;;;;;5.01;77.03;93815.72;5083786;28;20047;-80
2022/12/07 04:53:50;;;;;;;37.92;17.00;;;;;;;4.98;77.12;93816.25;5083659;28;20027;-81
2022/12/07 04:56:16;;;;;;;39.42;16.55;;;;;;;5.00;77.02;93819.41;5083547;28;20024;-82
2022/12/07 04:58:43;;;;;;;37.25;16.30;;;;;;;4.99;77.06;93815.19;5083463;28;20024;-81
2022/12/07 05:01:09;;;;;;;39.25;16.50;;;;;;;4.96;77.08;93810.47;5083584;28;20043;-82
2022/12/07 05:03:36;;;;;;;30.08;15.73;;;;;;;4.94;76.98;93808.09;5083595;28;20298;-82
2022/12/07 05:06:02;;;;;;;30.23;16.10;;;;;;;4.92;76.72;93812.84;5083861;28;20016;-82
2022/12/07 05:08:27;;;;;;;29.38;14.88;;;;;;;4.93;76.45;93817.09;5083522;28;20031;-82
2022/12/07 05:10:53;;;;;;;34.83;16.00;;;;;;;4.93;76.32;93817.09;5083506;28;20215;-83
2022/12/07 05:13:18;;;;;;;35.67;15.50;;;;;;;4.91;76.64;93821.88;5083507;28;20023;-82
2022/12/07 05:15:44;;;;;;;39.75;16.98;;;;;;;4.91;76.63;93824.50;5083449;28;20047;-82
2022/12/07 05:18:12;;;;;;;43.72;18.15;;;;;;;4.88;77.24;93830.31;5083394;28;20019;-82
2022/12/07 05:20:38;;;;;;;36.58;16.77;;;;;;;4.83;77.24;93827.75;5083426;28;20211;-82
2022/12/07 05:23:03;;;;;;;32.55;15.82;;;;;;;4.77;78.08;93828.84;5081891;28;20031;-82
2022/12/07 05:25:29;;;;;;;41.60;17.25;;;;;;;4.72;78.65;93818.31;5083352;28;20043;-82
2022/12/07 05:27:55;;;;;;;36.95;18.40;;;;;;;4.70;79.03;93817.81;5082966;28;20039;-81
2022/12/07 05:30:20;;;;;;;45.38;16.48;;;;;;;4.71;79.54;93814.13;5083411;28;20020;-81
2022/12/07 05:32:46;;;;;;;41.08;18.85;;;;;;;4.68;79.50;93814.66;5083110;28;20157;-81
2022/12/07 05:35:11;;;;;;;43.70;17.50;;;;;;;4.60;79.96;93816.84;5083067;28;20048;-80
2022/12/07 05:37:37;;;;;;;41.25;17.45;;;;;;;4.60;80.45;93814.19;5082969;28;20028;-81
2022/12/07 05:40:03;;;;;;;39.65;17.05;;;;;;;4.63;80.73;93807.56;5082924;28;20310;-81
2022/12/07 05:42:29;;;;;;;40.13;16.42;;;;;;;4.69;80.57;93797.75;5083435;28;20028;-82
2022/12/07 05:44:54;;;;;;;46.53;18.75;;;;;;;4.75;80.43;93799.28;5082859;28;20054;-81
2022/12/07 05:47:20;;;;;;;43.08;18.17;;;;;;;4.82;79.98;93794.47;5082946;28;20040;-81
2022/12/07 05:49:45;;;;;;;41.95;18.38;;;;;;;4.86;79.80;93800.00;5082985;28;20295;-81
2022/12/07 05:52:11;;;;;;;43.65;19.38;;;;;;;4.88;79.58;93790.72;5082936;28;20024;-83
2022/12/07 05:54:36;;;;;;;48.03;21.05;;;;;;;4.91;79.57;93798.09;5082667;28;20062;-82
2022/12/07 05:57:02;;;;;;;43.85;21.17;;;;;;;4.94;79.54;93805.44;5082980;28;20024;-82
2022/12/07 05:59:27;;;;;;;35.03;18.52;;;;;;;4.95;79.36;93808.91;5082831;28;20032;-82
2022/12/07 06:02:01;;;;;;;44.97;21.30;;;;;;;4.98;79.29;93805.69;5082725;28;20299;-82
2022/12/07 06:04:30;;;;;;;50.95;22.67;;;;;;;5.01;79.09;93805.91;5082864;28;20229;-82
2022/12/07 06:06:55;;;;;;;36.05;19.08;;;;;;;5.03;78.76;93803.00;5082318;28;20062;-82
2022/12/07 06:09:22;;;;;;;47.72;20.58;;;;;;;5.05;78.39;93795.59;5082582;28;20230;-84
2022/12/07 06:14:32;;;;;;;44.85;21.20;;;;;;;5.08;78.93;93802.16;5082694;28;20035;-84
2022/12/07 06:16:58;;;;;;;47.45;21.00;;;;;;;5.15;78.99;93813.97;5082613;28;20083;-83
2022/12/07 06:19:23;;;;;;;46.92;20.95;;;;;;;5.16;78.55;93809.47;5082404;28;20036;-82
2022/12/07 06:21:49;;;;;;;49.25;23.40;;;;;;;5.18;78.40;93817.91;5082496;28;20082;-85
2022/12/07 06:24:16;;;;;;;51.00;23.45;;;;;;;5.23;78.72;93826.59;5082645;28;20073;-81
2022/12/07 06:26:41;;;;;;;54.85;21.17;;;;;;;5.27;78.36;93820.72;5082587;28;20100;-81
2022/12/07 06:29:07;;;;;;;51.75;20.90;;;;;;;5.26;78.30;93819.94;5082561;28;20020;-81
2022/12/07 06:31:33;;;;;;;44.95;21.23;;;;;;;5.23;78.52;93821.28;5082520;28;20043;-81
2022/12/07 06:34:04;;;;;;;48.05;21.75;;;;;;;5.29;78.84;93818.59;5082771;28;20048;-81
2022/12/07 06:36:30;;;;;;;52.75;20.90;;;;;;;5.31;79.03;93830.47;5082363;28;20317;-82
2022/12/07 06:38:56;;;;;;;48.60;21.88;;;;;;;5.34;79.36;93818.53;5082478;28;20029;-81
2022/12/07 06:41:21;;;;;;;59.63;24.40;;;;;;;5.38;79.33;93822.19;5082423;28;20452;-81
2022/12/07 06:43:47;;;;;;;49.53;22.88;;;;;;;5.38;79.56;93819.56;5082241;28;20031;-81
2022/12/07 06:46:14;;;;;;;51.40;22.35;;;;;;;5.43;78.97;93822.13;5082165;28;20029;-80
2022/12/07 06:48:39;;;;;;;53.30;23.30;;;;;;;5.46;78.80;93824.22;5082078;28;20028;-81
2022/12/07 06:51:05;;;;;;;48.63;22.45;;;;;;;5.49;78.81;93821.00;5082121;28;20330;-81
2022/12/07 06:53:30;;;;;;;52.38;25.00;;;;;;;5.53;78.07;93832.59;5082311;28;20092;-80
2022/12/07 06:55:55;;;;;;;56.97;24.63;;;;;;;5.48;78.44;93826.59;5081998;28;20040;-80
2022/12/07 06:58:21;;;;;;;47.75;23.30;;;;;;;5.55;78.69;93825.16;5082221;28;20024;-81
2022/12/07 07:00:49;;;;;;;56.72;25.33;;;;;;;5.59;78.54;93833.34;5080845;28;20044;-81
2022/12/07 07:03:15;;;;;;;62.47;23.70;;;;;;;5.66;78.67;93841.72;5082061;28;20051;-80
2022/12/07 07:05:41;;;;;;;50.40;24.75;;;;;;;5.67;78.41;93845.94;5081957;28;20024;-80
2022/12/07 07:08:06;;;;;;;65.70;23.88;;;;;;;5.63;78.65;93835.13;5082008;28;20361;-81
2022/12/07 07:10:31;;;;;;;55.22;23.02;;;;;;;5.62;77.79;93841.50;5082116;28;20028;-82
2022/12/07 07:12:57;;;;;;;55.65;22.92;;;;;;;5.58;78.17;93831.78;5082157;28;20051;-82
2022/12/07 07:15:22;;;;;;;58.28;25.42;;;;;;;5.50;78.71;93825.25;5080717;28;20095;-82
2022/12/07 07:17:48;;;;;;;63.63;26.35;;;;;;;5.52;79.35;93824.97;5081992;28;20244;-82
2022/12/07 07:20:13;;;;;;;63.10;26.48;;;;;;;5.54;78.91;93825.47;5083713;28;20345;-82
2022/12/07 07:22:39;;;;;;;57.83;26.17;;;;;;;5.56;78.78;93823.34;5085756;28;20091;-80
2022/12/07 07:25:04;;;;;;;60.70;26.13;;;;;;;5.56;78.94;93833.91;5085226;28;20035;-80
2022/12/07 07:27:30;;;;;;;70.40;26.33;;;;;;;5.54;79.00;93831.53;5085740;28;20243;-81
2022/12/07 07:29:55;;;;;;;56.03;26.17;;;;;;;5.55;79.01;93845.53;5085569;28;20039;-81
2022/12/07 07:32:21;;;;;;;57.55;25.65;;;;;;;5.52;78.99;93840.81;5085409;28;20020;-81
2022/12/07 07:34:47;;;;;;;59.08;27.75;;;;;;;5.52;79.16;93843.47;5085232;28;20024;-80
2022/12/07 07:37:13;;;;;;;66.70;27.60;;;;;;;5.49;79.45;93844.03;5085418;28;20044;-81
2022/12/07 07:39:39;;;;;;;61.53;27.80;;;;;;;5.49;79.96;93844.81;5101326;28;20127;-76
2022/12/07 07:42:05;;;;;;;60.83;27.35;;;;;;;5.51;80.99;93847.16;5085266;28;20046;-75
2022/12/07 07:44:30;;;;;;;70.95;27.63;;;;;;;5.56;81.65;93839.97;5085097;28;20028;-75
2022/12/07 07:46:56;;;;;;;72.30;29.58;;;;;;;5.69;80.99;93841.16;5085164;28;20149;-79
2022/12/07 07:49:21;;;;;;;63.75;27.75;;;;;;;5.76;79.67;93841.59;5084916;28;20028;-79
2022/12/07 07:51:47;;;;;;;71.85;28.25;;;;;;;5.86;78.93;93837.25;5084861;28;20016;-79
2022/12/07 07:54:12;;;;;;;61.00;24.77;;;;;;;5.97;78.51;93841.38;5085001;28;20201;-80
2022/12/07 07:56:37;;;;;;;51.03;22.90;;;;;;;6.05;77.21;93846.03;5083651;28;20115;-78
2022/12/07 07:59:03;;;;;;;49.83;22.60;;;;;;;6.11;76.40;93846.78;5084614;28;20097;-79
2022/12/07 08:01:28;;;;;;;52.20;23.17;;;;;;;6.09;76.41;93840.97;5085000;28;20031;-79
2022/12/07 08:03:54;;;;;;;55.65;24.55;;;;;;;6.16;76.40;93831.59;5084796;28;20027;-78
2022/12/07 08:06:19;;;;;;;55.08;24.27;;;;;;;6.19;76.26;93836.31;5084951;28;20303;-79
2022/12/07 08:08:45;;;;;;;55.97;23.65;;;;;;;6.29;76.62;93829.28;5084718;28;20096;-79
2022/12/07 08:11:10;;;;;;;46.17;20.15;;;;;;;6.33;75.71;93835.59;5084878;28;20012;-79
2022/12/07 08:13:36;;;;;;;52.25;22.10;;;;;;;6.33;75.71;93841.69;5084594;28;20219;-79
2022/12/07 08:16:08;;;;;;;47.22;20.02;;;;;;;6.36;75.44;93835.03;5084767;28;20020;-79
2022/12/07 08:18:37;;;;;;;39.05;18.38;;;;;;;6.40;75.20;93828.09;5084499;28;20017;-80
2022/12/07 08:21:03;;;;;;;42.20;19.35;;;;;;;6.46;74.76;93829.59;5084519;28;20099;-78
2022/12/07 08:23:29;;;;;;;42.95;19.52;;;;;;;6.51;74.84;93834.03;5084484;28;20026;-77
2022/12/07 08:25:55;;;;;;;45.67;20.17;;;;;;;6.55;74.55;93833.16;5083254;28;20023;-76
2022/12/07 08:28:20;;;;;;;45.90;20.27;;;;;;;6.57;74.49;93836.31;5084624;28;20095;-78
2022/12/07 08:30:46;;;;;;;48.15;21.65;;;;;;;6.59;74.50;93839.47;5084335;28;20020;-82
2022/12/07 08:33:11;;;;;;;48.55;21.90;;;;;;;6.64;74.23;93828.00;5083994;28;20044;-81
2022/12/07 08:35:37;;;;;;;53.78;24.05;;;;;;;6.65;74.20;93832.22;5084213;28;20023;-79
2022/12/07 08:38:03;;;;;;;53.38;22.90;;;;;;;6.68;74.23;93830.88;5083087;28;20106;-80
2022/12/07 08:40:29;;;;;;;50.40;22.05;;;;;;;6.68;74.15;93829.00;5084658;28;20021;-80
2022/12/07 08:42:54;;;;;;;49.42;23.02;;;;;;;6.67;74.20;93834.59;5084710;28;20017;-82
2022/12/07 08:45:21;;;;;;;44.25;20.55;;;;;;;6.67;74.02;93831.94;5084266;28;20323;-79
2022/12/07 08:47:56;;;;;;;48.40;21.77;;;;;;;6.68;74.00;93830.88;5084531;28;20049;-84
2022/12/07 08:50:22;;;;;;;46.22;20.85;;;;;;;6.63;74.33;93821.94;5083280;28;20021;-83
2022/12/07 08:52:52;;;;;;;45.22;21.80;;;;;;;6.65;74.46;93826.13;5084538;28;20020;-79
2022/12/07 08:55:18;;;;;;;44.75;22.67;;;;;;;6.66;74.48;93823.22;5082840;28;20024;-77
2022/12/07 08:57:44;;;;;;;48.80;22.40;;;;;;;6.72;74.56;93826.56;5084298;28;20021;-87
2022/12/07 09:00:10;;;;;;;54.00;23.23;;;;;;;6.76;74.55;93816.97;5083103;28;20396;-79
2022/12/07 09:02:36;;;;;;;43.60;22.98;;;;;;;6.82;74.68;93815.81;5084037;28;20040;-80
2022/12/07 09:05:01;;;;;;;45.38;21.92;;;;;;;6.89;74.13;93805.59;5084334;28;20027;-77
2022/12/07 09:07:27;;;;;;;53.75;22.27;;;;;;;6.96;74.24;93813.19;5083862;28;20061;-80
2022/12/07 09:09:52;;;;;;;46.95;22.58;;;;;;;7.00;73.84;93809.66;5083527;28;20309;-82
2022/12/07 09:12:18;;;;;;;46.17;21.27;;;;;;;7.09;73.68;93804.47;5083994;28;20090;-80
2022/12/07 09:14:43;;;;;;;42.05;19.30;;;;;;;7.16;73.47;93801.44;5082962;28;20032;-82
2022/12/07 09:17:11;;;;;;;48.38;22.33;;;;;;;7.23;73.21;93789.38;5083857;28;20311;-84
2022/12/07 09:19:38;;;;;;;55.90;20.42;;;;;;;7.30;72.88;93782.91;5084811;28;20020;-81
2022/12/07 09:22:07;;;;;;;48.92;20.58;;;;;;;7.40;72.52;93777.41;5083779;28;20115;-80
2022/12/07 09:24:33;;;;;;;48.72;20.60;;;;;;;7.47;72.57;93787.63;5082599;28;20027;-77
2022/12/07 09:26:58;;;;;;;43.35;20.70;;;;;;;7.54;72.12;93790.69;5083706;28;20096;-88
2022/12/07 09:29:24;;;;;;;37.58;17.20;;;;;;;7.62;71.65;93797.94;5084436;28;20062;-81
2022/12/07 09:31:50;;;;;;;36.63;17.15;;;;;;;7.63;70.51;93792.34;5083504;28;20024;-78
2022/12/07 09:34:16;;;;;;;50.35;19.60;;;;;;;7.69;70.05;93785.06;5083129;28;20032;-86
2022/12/07 09:36:42;;;;;;;63.70;27.08;;;;;;;7.72;70.38;93773.88;5083059;28;20024;-79
2022/12/07 09:39:08;;;;;;;49.70;25.60;;;;;;;7.82;70.82;93773.66;5083352;28;20043;-81
2022/12/07 09:41:38;;;;;;;48.15;20.90;;;;;;;7.90;70.70;93768.75;5082540;28;20024;-84
2022/12/07 09:44:13;;;;;;;46.97;19.90;;;;;;;7.94;70.62;93772.38;5082682;28;20032;-79
2022/12/07 09:46:41;;;;;;;62.00;22.80;;;;;;;8.02;70.56;93761.03;5082914;28;20028;-81
2022/12/07 09:49:18;;;;;;;54.10;19.50;;;;;;;8.12;70.49;93762.66;5081595;28;20040;-82
2022/12/07 09:51:44;;;;;;;54.03;21.02;;;;;;;8.26;69.95;93765.28;5083141;28;20036;-82
2022/12/07 09:54:13;;;;;;;62.85;21.85;;;;;;;8.36;69.83;93767.72;5083293;28;20315;-81
2022/12/07 09:56:39;;;;;;;53.28;24.98;;;;;;;8.46;69.02;93756.09;5083651;28;20306;-86
2022/12/07 09:59:04;;;;;;;58.40;25.55;;;;;;;8.51;68.77;93759.44;5082582;28;20115;-83
2022/12/07 10:01:32;;;;;;;66.43;27.77;;;;;;;8.56;68.78;93743.34;5082686;28;20032;-82
2022/12/07 10:04:11;;;;;;;49.88;24.13;;;;;;;8.62;68.73;93746.69;5082932;28;20071;-81
2022/12/07 10:06:36;;;;;;;54.83;23.10;;;;;;;8.77;68.47;93748.16;5083531;28;20032;-83
2022/12/07 10:09:03;;;;;;;57.53;24.00;;;;;;;8.85;67.76;93752.75;5082923;28;20024;-80
2022/12/07 10:11:28;;;;;;;51.67;20.00;;;;;;;8.95;67.31;93743.75;5083047;28;20028;-84
2022/12/07 10:13:54;;;;;;;46.85;19.83;;;;;;;9.08;66.78;93742.06;5082676;28;20031;-83
2022/12/07 10:16:26;;;;;;;63.50;20.50;;;;;;;9.20;66.60;93740.44;5083123;28;20024;-83
2022/12/07 10:18:52;;;;;;;39.20;18.45;;;;;;;9.36;66.00;93740.00;5083202;28;20063;-83
2022/12/07 10:21:25;;;;;;;40.95;19.88;;;;;;;9.53;66.19;93745.38;5083808;28;20095;-86
2022/12/07 10:24:14;;;;;;;41.40;19.40;;;;;;;9.66;65.74;93743.69;5083046;28;20114;-83
2022/12/07 10:26:49;;;;;;;47.67;20.35;;;;;;;9.77;65.36;93726.34;5082618;28;20207;-82
2022/12/07 10:29:31;;;;;;;43.72;19.20;;;;;;;9.86;65.37;93718.38;5082683;28;20024;-83
2022/12/07 10:32:19;;;;;;;57.60;20.85;;;;;;;9.96;64.65;93711.97;5082650;28;20020;-81
2022/12/07 10:34:44;;;;;;;43.30;18.45;;;;;;;10.01;64.60;93706.47;5076902;28;20103;-81
2022/12/07 10:37:13;;;;;;;52.75;20.67;;;;;;;10.06;64.64;93709.00;5082150;28;20035;-82
2022/12/07 10:39:53;;;;;;;46.88;19.40;;;;;;;10.11;64.66;93703.50;5082318;28;20028;-83
2022/12/07 10:42:31;;;;;;;61.13;23.23;;;;;;;10.17;64.53;93702.25;5082170;28;20200;-83
2022/12/07 10:45:26;;;;;;;50.75;26.17;;;;;;;10.19;64.67;93701.94;5082326;28;20029;-83
2022/12/07 10:48:22;;;;;;;65.22;36.45;;;;;;;10.24;64.79;93699.91;5073382;28;20107;-83
2022/12/07 10:51:15;;;;;;;54.35;24.75;;;;;;;10.32;64.99;93697.56;5082440;28;20016;-83
2022/12/07 10:53:59;;;;;;;44.72;24.10;;;;;;;10.42;65.47;93682.06;5083655;28;20035;-84
2022/12/07 10:56:40;;;;;;;45.63;22.85;;;;;;;10.56;65.01;93671.22;5086033;28;20029;-82
2022/12/07 10:59:11;;;;;;;48.70;21.92;;;;;;;10.74;64.31;93671.94;5086052;28;20377;-83
2022/12/07 11:01:46;;;;;;;44.03;19.83;;;;;;;10.89;63.62;93673.34;5085980;28;20098;-83
2022/12/07 11:04:43;;;;;;;42.80;20.13;;;;;;;11.07;63.02;93667.91;5086013;28;20595;-83
2022/12/07 11:07:42;;;;;;;39.13;16.67;;;;;;;11.23;61.81;93663.59;5080354;28;20338;-83
2022/12/07 11:10:08;;;;;;;40.08;14.57;;;;;;;11.35;60.12;93668.25;5084772;28;20066;-83
2022/12/07 11:12:47;;;;;;;26.25;11.07;;;;;;;11.47;58.88;93670.25;5085989;28;20024;-82
2022/12/07 11:15:18;;;;;;;24.88;10.60;;;;;;;11.57;57.73;93662.63;5085779;28;20035;-82
2022/12/07 11:18:11;;;;;;;25.40;10.80;;;;;;;11.70;57.84;93658.16;5085852;28;20024;-82
2022/12/07 11:20:49;;;;;;;31.58;10.00;;;;;;;11.77;57.62;93650.41;5085589;28;20051;-81
2022/12/07 11:23:29;;;;;;;24.45;11.13;;;;;;;11.81;56.96;93654.00;5085527;28;20087;-82
2022/12/07 11:26:12;;;;;;;33.08;8.68;;;;;;;11.91;56.69;93652.09;5085820;28;20024;-82
2022/12/07 11:28:46;;;;;;;;;;;;;;;11.95;55.44;93647.66;5086090;28;20044;-82
2022/12/07 11:31:25;;;;;;;25.95;7.82;;;;;;;11.85;56.15;93636.22;5085630;28;19984;-82
2022/12/07 11:33:58;;;;;;;35.03;11.65;;;;;;;11.87;56.33;93632.47;5084613;28;20036;-83
2022/12/07 11:36:44;;;;;;;22.90;10.18;;;;;;;11.99;56.04;93629.88;5086215;28;20031;-83
2022/12/07 11:39:18;;;;;;;35.70;10.23;;;;;;;12.01;56.21;93631.09;5085750;28;20024;-80